Bellevue, Nebraska
Current Conditions -  °F | °C
As of 5:58 PM on Monday 24 Nov 2014 (Local Time) from KOFF Reporting Station
Clear Clear  
Wind Chill: 23°   Ceiling: Unl
Heat Index: 33°   Visibility: 10mi
Dew Point: 12°   Wind: 14mph
Humidity: 43%   Direction: 310°NW
Pressure: 29.93"   Gusts: 26mph
Location:  41.14°N, 95.89°W
Report Text: KOFF 242358Z AUTO 31012G23KT 10SM CLR 00/M11 A2993 RMK AO2 PK WND 33026/39 SLP151 T00031109 10028 21010 52042
Loading
Personal Weather Stations






























Interactive Weather Map New forecast layout! Learn more

10-Day Weather Forecast

Advertisements
Track Severe Weather on mobile